Time;durP1;ratioP1;P1;durP2;ratioP2;P2;SDS_P1;SDS_P2;PMS_P1;PMS_P2;Temp;Humidity;BMP_temperature;BMP_pressure;BME280_temperature;BME280_humidity;BME280_pressure;Samples;Min_cycle;Max_cycle;Signal;HPM_P1;HPM_P2
2021/06/21 00:01:37;;;;;;;12.75;7.65;;;23.80;99.90;;;;;;5099357;28;20379;-77
2021/06/21 00:04:03;;;;;;;12.77;7.90;;;23.90;99.90;;;;;;5101340;28;20493;-75
2021/06/21 00:06:29;;;;;;;11.57;7.32;;;23.80;99.90;;;;;;5099768;28;20024;-76
2021/06/21 00:08:55;;;;;;;13.05;8.48;;;23.80;99.90;;;;;;5098509;28;20111;-77
2021/06/21 00:11:21;;;;;;;10.75;8.15;;;23.80;99.90;;;;;;5100183;28;20000;-74
2021/06/21 00:13:47;;;;;;;11.57;8.73;;;23.70;99.90;;;;;;5099800;28;20055;-77
2021/06/21 00:16:13;;;;;;;15.65;9.00;;;23.70;99.90;;;;;;5099113;28;20016;-77
2021/06/21 00:18:39;;;;;;;12.23;8.02;;;23.70;99.90;;;;;;5099102;28;20028;-74
2021/06/21 00:21:06;;;;;;;13.98;8.63;;;23.70;99.90;;;;;;5099300;28;20174;-74
2021/06/21 00:23:32;;;;;;;12.93;9.43;;;23.70;99.90;;;;;;5097085;28;20024;-74
2021/06/21 00:25:58;;;;;;;12.35;9.15;;;23.60;99.90;;;;;;5099942;28;20385;-74
2021/06/21 00:28:23;;;;;;;11.65;8.98;;;23.50;99.90;;;;;;5099202;28;20024;-74
2021/06/21 00:30:49;;;;;;;10.88;9.25;;;23.50;99.90;;;;;;5100285;28;20481;-73
2021/06/21 00:33:16;;;;;;;14.63;9.48;;;23.50;99.90;;;;;;5098448;28;20036;-73
2021/06/21 00:35:42;;;;;;;15.93;10.13;;;23.50;99.90;;;;;;5098999;28;20103;-74
2021/06/21 00:38:08;;;;;;;13.32;10.38;;;23.50;99.90;;;;;;5098871;28;20060;-78
2021/06/21 00:40:35;;;;;;;13.55;10.38;;;23.50;99.90;;;;;;5100294;28;20042;-73
2021/06/21 00:43:02;;;;;;;16.63;10.10;;;23.40;99.90;;;;;;5099466;28;20043;-73
2021/06/21 00:45:28;;;;;;;14.20;9.55;;;23.40;99.90;;;;;;5099400;28;20115;-74
2021/06/21 00:47:54;;;;;;;11.73;9.43;;;23.30;99.90;;;;;;5100231;28;20070;-73
2021/06/21 00:50:22;;;;;;;13.40;9.52;;;23.40;99.90;;;;;;5099372;28;20069;-79
2021/06/21 00:52:52;;;;;;;13.52;9.25;;;23.30;99.90;;;;;;5098620;28;20500;-75
2021/06/21 00:55:18;;;;;;;12.07;9.38;;;23.30;99.90;;;;;;5099128;28;20027;-75
2021/06/21 00:57:43;;;;;;;12.23;8.38;;;23.30;99.90;;;;;;5096461;28;20478;-74
2021/06/21 01:00:15;;;;;;;11.05;8.32;;;23.30;99.90;;;;;;5099569;28;20024;-75
2021/06/21 01:02:43;;;;;;;12.10;8.60;;;23.40;99.90;;;;;;5099606;28;20469;-75
2021/06/21 01:05:14;;;;;;;13.85;9.20;;;23.30;99.90;;;;;;5097757;28;20024;-73
2021/06/21 01:07:41;;;;;;;10.50;8.07;;;23.30;99.90;;;;;;5098727;28;20020;-74
2021/06/21 01:10:08;;;;;;;12.18;7.90;;;23.30;99.90;;;;;;5098185;28;20032;-73
2021/06/21 01:12:46;;;;;;;9.10;7.15;;;23.20;99.90;;;;;;5097872;28;20347;-74
2021/06/21 01:15:16;;;;;;;12.10;7.40;;;23.20;99.90;;;;;;5096205;28;20377;-79
2021/06/21 01:17:50;;;;;;;11.30;7.03;;;23.30;99.90;;;;;;5096109;28;20499;-77
2021/06/21 01:20:59;;;;;;;13.55;7.50;;;23.20;99.90;;;;;;5094988;28;20497;-73
2021/06/21 01:24:02;;;;;;;9.98;7.25;;;23.10;99.90;;;;;;5098692;28;20493;-76
2021/06/21 01:26:47;;;;;;;9.48;7.20;;;23.00;99.90;;;;;;5097414;28;20027;-73
2021/06/21 01:29:35;;;;;;;11.70;7.20;;;23.00;99.90;;;;;;5096067;28;20020;-75
2021/06/21 01:32:16;;;;;;;11.82;7.60;;;22.90;99.90;;;;;;5096596;28;20052;-73
2021/06/21 01:34:51;;;;;;;8.57;6.78;;;22.80;99.90;;;;;;5099474;28;20028;-79
2021/06/21 01:37:19;;;;;;;11.32;7.50;;;22.80;99.90;;;;;;5101033;28;20091;-79
2021/06/21 01:39:51;;;;;;;12.10;7.30;;;22.90;99.90;;;;;;5102663;28;20020;-79
2021/06/21 01:42:21;;;;;;;8.77;7.03;;;22.90;99.90;;;;;;5101470;28;20051;-75
2021/06/21 01:45:06;;;;;;;9.25;7.65;;;22.60;99.90;;;;;;5100687;28;20028;-72
2021/06/21 01:47:33;;;;;;;13.15;7.20;;;22.60;99.90;;;;;;5102334;28;20024;-74
2021/06/21 01:50:00;;;;;;;10.10;7.32;;;22.70;99.90;;;;;;5101762;28;20017;-75
2021/06/21 01:52:38;;;;;;;9.90;6.88;;;22.70;99.90;;;;;;5102221;28;20437;-74
2021/06/21 01:55:06;;;;;;;9.60;6.97;;;22.70;99.90;;;;;;5100453;28;20028;-73
2021/06/21 01:57:34;;;;;;;11.88;7.38;;;22.70;99.90;;;;;;5100725;28;20145;-76
2021/06/21 02:00:08;;;;;;;11.75;7.90;;;22.60;99.90;;;;;;5099610;28;20590;-76
2021/06/21 02:02:36;;;;;;;12.73;8.25;;;22.60;99.90;;;;;;5102934;28;20065;-78
2021/06/21 02:05:04;;;;;;;10.25;7.30;;;22.50;99.90;;;;;;5102493;28;20008;-75
2021/06/21 02:07:32;;;;;;;10.20;8.48;;;22.50;99.90;;;;;;5101722;28;20032;-79
2021/06/21 02:09:59;;;;;;;11.77;8.43;;;22.50;99.90;;;;;;5101460;28;20032;-75
2021/06/21 02:12:26;;;;;;;11.88;8.02;;;22.50;99.90;;;;;;5100016;28;20050;-73
2021/06/21 02:14:52;;;;;;;12.60;8.65;;;22.50;99.90;;;;;;5102490;28;20019;-76
2021/06/21 02:17:25;;;;;;;13.27;8.57;;;22.30;99.90;;;;;;5100646;28;20047;-75
2021/06/21 02:19:54;;;;;;;13.30;8.63;;;22.20;99.90;;;;;;5100251;28;20036;-77
2021/06/21 02:22:26;;;;;;;14.25;9.18;;;22.30;99.90;;;;;;5102215;28;20022;-74
2021/06/21 02:24:55;;;;;;;11.52;8.85;;;22.30;99.90;;;;;;5101887;28;20023;-73
2021/06/21 02:27:22;;;;;;;13.43;8.32;;;22.40;99.90;;;;;;5100055;28;20363;-73
2021/06/21 02:29:49;;;;;;;12.70;9.35;;;22.40;99.90;;;;;;5102078;28;20020;-78
2021/06/21 02:32:15;;;;;;;12.77;8.77;;;22.50;99.90;;;;;;5100721;28;20024;-73
2021/06/21 02:34:42;;;;;;;14.27;9.35;;;22.40;99.90;;;;;;5102457;28;20016;-77
2021/06/21 02:37:09;;;;;;;16.10;9.40;;;22.40;99.90;;;;;;5100948;28;20066;-74
2021/06/21 02:39:35;;;;;;;14.68;9.38;;;22.30;99.90;;;;;;5099615;28;20008;-75
2021/06/21 02:42:02;;;;;;;11.02;9.30;;;22.10;99.90;;;;;;5101839;28;20040;-75
2021/06/21 02:44:28;;;;;;;15.52;9.65;;;22.10;99.90;;;;;;5101809;28;20024;-74
2021/06/21 02:46:54;;;;;;;12.25;9.25;;;22.30;99.90;;;;;;5097715;28;20056;-78
2021/06/21 02:49:20;;;;;;;12.57;8.85;;;22.30;99.90;;;;;;5099431;28;20044;-77
2021/06/21 02:52:16;;;;;;;18.10;9.18;;;22.30;99.90;;;;;;5102049;28;20023;-75
2021/06/21 02:55:08;;;;;;;13.68;9.40;;;22.30;99.90;;;;;;5099949;28;20514;-76
2021/06/21 02:57:45;;;;;;;12.52;8.52;;;22.30;99.90;;;;;;5102641;28;20065;-74
2021/06/21 03:00:12;;;;;;;13.65;8.73;;;22.30;99.90;;;;;;5101487;28;20000;-78
2021/06/21 03:02:40;;;;;;;12.85;8.82;;;22.30;99.90;;;;;;5102293;28;20020;-73
2021/06/21 03:05:07;;;;;;;14.70;8.63;;;22.20;99.90;;;;;;5100882;28;20000;-74
2021/06/21 03:07:34;;;;;;;13.45;8.63;;;22.30;99.90;;;;;;5099348;28;20039;-75
2021/06/21 03:10:00;;;;;;;13.90;9.00;;;22.10;99.90;;;;;;5100000;28;20020;-73
2021/06/21 03:12:29;;;;;;;14.48;9.00;;;22.30;99.90;;;;;;5101066;28;20446;-75
2021/06/21 03:14:55;;;;;;;14.02;9.60;;;22.20;99.90;;;;;;5099296;28;20039;-79
2021/06/21 03:17:22;;;;;;;13.93;9.55;;;22.10;99.90;;;;;;5100135;28;20012;-73
2021/06/21 03:19:50;;;;;;;15.00;9.05;;;22.00;99.90;;;;;;5097546;28;20025;-74
2021/06/21 03:22:23;;;;;;;13.52;9.75;;;22.00;99.90;;;;;;5098808;28;20000;-75
2021/06/21 03:24:55;;;;;;;16.42;9.40;;;22.20;99.90;;;;;;5101711;28;20115;-73
2021/06/21 03:27:29;;;;;;;12.50;9.45;;;22.20;99.90;;;;;;5098613;28;20028;-78
2021/06/21 03:29:56;;;;;;;12.38;9.38;;;22.20;99.90;;;;;;5101075;28;20028;-78
2021/06/21 03:32:27;;;;;;;12.88;9.52;;;22.20;99.90;;;;;;5097702;28;20068;-73
2021/06/21 03:35:00;;;;;;;13.13;9.32;;;22.10;99.90;;;;;;5101041;28;20142;-75
2021/06/21 03:37:27;;;;;;;15.90;9.80;;;22.20;99.90;;;;;;5100169;28;20036;-77
2021/06/21 03:39:54;;;;;;;14.82;9.63;;;22.10;99.90;;;;;;5100112;28;20100;-73
2021/06/21 03:42:20;;;;;;;12.98;8.93;;;21.90;99.90;;;;;;5099212;28;20097;-78
2021/06/21 03:44:47;;;;;;;14.13;9.05;;;21.80;99.90;;;;;;5100383;28;20035;-75
2021/06/21 03:47:13;;;;;;;17.73;9.25;;;21.90;99.90;;;;;;5098624;28;20478;-75
2021/06/21 03:49:42;;;;;;;10.65;9.40;;;22.00;99.90;;;;;;5098480;28;20069;-77
2021/06/21 03:52:08;;;;;;;12.98;8.45;;;22.20;99.90;;;;;;5099453;28;20058;-73
2021/06/21 03:54:34;;;;;;;13.50;9.30;;;22.30;99.90;;;;;;5100138;28;20063;-73
2021/06/21 03:57:01;;;;;;;12.35;9.05;;;22.40;99.90;;;;;;5099350;28;20461;-77
2021/06/21 03:59:27;;;;;;;13.05;9.85;;;22.40;99.90;;;;;;5097019;28;20078;-75
2021/06/21 04:01:55;;;;;;;14.13;9.25;;;22.40;99.90;;;;;;5098446;28;20020;-73
2021/06/21 04:04:21;;;;;;;14.27;9.48;;;22.40;99.90;;;;;;5099298;28;20061;-78
2021/06/21 04:06:47;;;;;;;12.32;9.38;;;22.40;99.90;;;;;;5099196;28;20061;-77
2021/06/21 04:09:13;;;;;;;15.93;9.38;;;22.40;99.90;;;;;;5099936;28;20533;-73
2021/06/21 04:11:39;;;;;;;14.02;9.55;;;22.30;99.90;;;;;;5101101;28;20046;-76
2021/06/21 04:14:06;;;;;;;14.18;9.65;;;22.30;99.90;;;;;;5097696;28;20024;-72
2021/06/21 04:16:32;;;;;;;14.10;9.73;;;22.30;99.90;;;;;;5099548;28;20047;-74
2021/06/21 04:18:58;;;;;;;14.52;10.10;;;22.30;99.90;;;;;;5098640;28;20024;-73
2021/06/21 04:21:27;;;;;;;15.27;10.18;;;22.30;99.90;;;;;;5098834;28;20016;-78
2021/06/21 04:23:53;;;;;;;14.90;9.88;;;22.20;99.90;;;;;;5098976;28;20027;-75
2021/06/21 04:26:19;;;;;;;15.25;10.40;;;22.10;99.90;;;;;;5096738;28;20416;-74
2021/06/21 04:28:47;;;;;;;14.68;10.57;;;22.10;99.90;;;;;;5099643;28;20024;-74
2021/06/21 04:31:13;;;;;;;13.18;10.23;;;22.10;99.90;;;;;;5098893;28;20059;-76
2021/06/21 04:33:39;;;;;;;15.65;10.60;;;22.30;99.90;;;;;;5096793;28;20024;-73
2021/06/21 04:36:05;;;;;;;18.05;10.82;;;22.40;99.90;;;;;;5096344;28;20070;-74
2021/06/21 04:38:31;;;;;;;18.40;11.35;;;22.40;99.90;;;;;;5093657;28;20051;-77
2021/06/21 04:40:57;;;;;;;16.33;11.27;;;22.40;99.90;;;;;;5099658;28;20021;-77
2021/06/21 04:43:23;;;;;;;17.02;11.15;;;22.40;99.90;;;;;;5098812;28;20055;-72
2021/06/21 04:45:49;;;;;;;14.68;11.13;;;22.30;99.90;;;;;;5098826;28;20016;-74
2021/06/21 04:48:15;;;;;;;14.73;11.80;;;22.40;99.90;;;;;;5098395;28;20130;-74
2021/06/21 04:50:42;;;;;;;14.77;11.40;;;22.60;99.90;;;;;;5099144;28;20524;-72
2021/06/21 04:53:11;;;;;;;16.33;11.65;;;22.60;99.90;;;;;;5097288;28;20024;-72
2021/06/21 04:55:38;;;;;;;17.00;11.70;;;22.60;99.90;;;;;;5095582;28;20111;-72
2021/06/21 04:58:04;;;;;;;16.40;11.48;;;22.70;99.90;;;;;;5096460;28;20024;-73
2021/06/21 05:00:30;;;;;;;17.10;11.57;;;22.70;99.90;;;;;;5097927;28;20107;-72
2021/06/21 05:02:56;;;;;;;14.75;11.30;;;22.80;99.90;;;;;;5097596;28;20106;-73
2021/06/21 05:05:22;;;;;;;16.65;11.63;;;22.60;99.90;;;;;;5098292;28;20020;-77
2021/06/21 05:07:50;;;;;;;15.50;11.55;;;22.50;99.90;;;;;;5095879;28;20152;-76
2021/06/21 05:10:20;;;;;;;16.40;12.18;;;22.50;99.90;;;;;;5098950;28;20024;-72
2021/06/21 05:12:47;;;;;;;15.40;11.10;;;22.50;99.90;;;;;;5103043;28;20028;-77
2021/06/21 05:15:14;;;;;;;15.60;11.35;;;22.60;99.90;;;;;;5100608;28;20021;-72
2021/06/21 05:17:41;;;;;;;13.98;11.68;;;22.70;99.90;;;;;;5099746;28;20098;-76
2021/06/21 05:20:09;;;;;;;15.65;11.18;;;22.90;99.90;;;;;;5100289;28;20034;-70
2021/06/21 05:22:35;;;;;;;15.70;11.85;;;23.10;99.90;;;;;;5102368;28;20016;-74
2021/06/21 05:25:03;;;;;;;17.98;11.45;;;23.20;99.90;;;;;;5102033;28;20420;-76
2021/06/21 05:27:30;;;;;;;13.25;10.35;;;23.40;99.90;;;;;;5103212;28;20103;-71
2021/06/21 05:29:56;;;;;;;12.55;9.93;;;23.50;99.90;;;;;;5087758;28;20052;-70
2021/06/21 05:32:23;;;;;;;15.63;10.68;;;;;;;;;;5070385;28;20038;-70
2021/06/21 05:34:48;;;;;;;15.10;10.20;;;23.60;99.90;;;;;;5081220;28;20029;-71
2021/06/21 05:37:14;;;;;;;13.75;10.50;;;23.90;99.90;;;;;;5079237;28;20378;-71
2021/06/21 05:39:40;;;;;;;15.30;10.63;;;23.90;99.90;;;;;;5070906;28;20056;-74
2021/06/21 05:42:07;;;;;;;12.90;9.38;;;24.00;99.90;;;;;;5078581;28;20532;-76
2021/06/21 05:44:33;;;;;;;17.88;10.70;;;23.90;99.90;;;;;;5067094;28;20423;-71
2021/06/21 05:46:59;;;;;;;13.50;9.30;;;24.10;99.90;;;;;;5074656;28;20032;-72
2021/06/21 05:49:28;;;;;;;14.25;9.25;;;24.20;99.90;;;;;;5075766;28;20024;-71
2021/06/21 05:51:55;;;;;;;11.43;9.88;;;24.20;99.90;;;;;;5056363;28;20502;-71
2021/06/21 05:54:21;;;;;;;12.43;8.75;;;24.20;99.90;;;;;;5056977;28;20036;-72
2021/06/21 05:56:47;;;;;;;11.35;8.43;;;24.30;99.90;;;;;;5057892;28;20025;-71
2021/06/21 05:59:12;;;;;;;14.77;10.10;;;24.50;99.90;;;;;;5056605;28;20028;-73
2021/06/21 06:01:38;;;;;;;12.82;10.20;;;24.50;99.90;;;;;;5057909;28;20478;-72
2021/06/21 06:04:04;;;;;;;12.35;9.60;;;24.70;99.90;;;;;;5067095;28;20035;-72
2021/06/21 06:06:30;;;;;;;9.90;8.18;;;24.90;99.90;;;;;;5056580;28;20025;-74
2021/06/21 06:08:56;;;;;;;12.93;9.10;;;24.90;99.90;;;;;;5056635;28;20056;-73
2021/06/21 06:11:21;;;;;;;16.25;9.95;;;25.00;99.90;;;;;;5057106;28;20017;-73
2021/06/21 06:13:47;;;;;;;12.38;10.32;;;25.20;99.90;;;;;;5059247;28;20513;-73
2021/06/21 06:16:13;;;;;;;10.90;8.43;;;25.40;99.90;;;;;;5057954;28;20017;-71
2021/06/21 06:18:40;;;;;;;11.00;8.40;;;25.50;99.90;;;;;;5058998;28;20017;-73
2021/06/21 06:21:05;;;;;;;11.43;9.30;;;25.60;99.90;;;;;;5055374;28;20017;-73
2021/06/21 06:23:31;;;;;;;13.93;8.50;;;25.60;99.90;;;;;;5055676;28;20017;-73
2021/06/21 06:25:57;;;;;;;11.20;8.32;;;25.90;99.90;;;;;;5055579;28;20017;-71
2021/06/21 06:28:23;;;;;;;11.13;8.40;;;26.00;99.90;;;;;;5057116;28;20021;-73
2021/06/21 06:30:49;;;;;;;13.70;7.07;;;26.10;99.90;;;;;;5055388;28;20036;-72
2021/06/21 06:33:15;;;;;;;13.45;7.55;;;26.30;99.90;;;;;;5058262;28;20025;-71
2021/06/21 06:35:40;;;;;;;11.65;9.60;;;26.50;99.90;;;;;;5056157;28;20017;-75
2021/06/21 06:38:06;;;;;;;11.38;7.38;;;;;;;;;;5058947;28;20378;-74
2021/06/21 06:40:32;;;;;;;14.05;7.57;;;26.60;99.90;;;;;;5063489;28;20033;-74
2021/06/21 06:42:58;;;;;;;10.27;7.47;;;26.70;99.90;;;;;;5061938;28;20396;-73
2021/06/21 06:45:24;;;;;;;8.48;6.60;;;26.80;99.70;;;;;;5061446;28;20083;-71
2021/06/21 06:47:50;;;;;;;11.68;6.65;;;26.90;99.90;;;;;;5056342;28;20021;-72
2021/06/21 06:50:16;;;;;;;12.38;8.13;;;27.00;99.90;;;;;;5056432;28;20151;-72
2021/06/21 06:52:43;;;;;;;9.63;6.60;;;27.10;99.90;;;;;;5059825;28;20040;-71
2021/06/21 06:57:55;;;;;;;6.45;5.68;;;27.60;99.90;;;;;;5061147;28;20032;-77
2021/06/21 07:00:21;;;;;;;6.47;5.45;;;27.70;99.00;;;;;;5063418;28;20025;-76
2021/06/21 07:02:47;;;;;;;9.23;5.55;;;27.70;98.10;;;;;;5061103;28;20108;-77
2021/06/21 07:05:14;;;;;;;9.23;6.20;;;27.70;98.20;;;;;;5059934;28;20048;-78
2021/06/21 07:07:40;;;;;;;9.32;6.47;;;27.80;99.90;;;;;;5060387;28;20025;-75
2021/06/21 07:10:06;;;;;;;10.50;6.22;;;27.90;98.60;;;;;;5055168;28;20028;-72
2021/06/21 07:12:32;;;;;;;8.57;5.72;;;27.70;98.50;;;;;;5060133;28;20021;-73
2021/06/21 07:14:58;;;;;;;7.13;5.55;;;28.00;98.50;;;;;;5059419;28;20031;-74
2021/06/21 07:17:24;;;;;;;8.93;5.28;;;28.20;96.70;;;;;;5060249;28;20082;-76
2021/06/21 07:19:50;;;;;;;6.95;5.20;;;28.30;97.30;;;;;;5060826;28;20021;-74
2021/06/21 07:22:16;;;;;;;9.60;5.15;;;28.60;96.30;;;;;;5060287;28;20009;-75
2021/06/21 07:24:42;;;;;;;8.55;5.10;;;28.70;96.20;;;;;;5061380;28;20498;-75
2021/06/21 07:27:08;;;;;;;8.98;5.68;;;28.80;96.00;;;;;;5058789;28;20368;-72
2021/06/21 07:29:35;;;;;;;9.80;6.15;;;28.80;96.60;;;;;;5060441;28;20048;-73
2021/06/21 07:32:01;;;;;;;10.13;5.28;;;29.00;95.90;;;;;;5059744;28;20045;-74
2021/06/21 07:34:27;;;;;;;6.85;4.65;;;29.00;95.20;;;;;;5062541;28;20021;-72
2021/06/21 07:36:53;;;;;;;8.07;5.70;;;29.30;95.90;;;;;;5059974;28;20032;-76
2021/06/21 07:39:19;;;;;;;9.35;5.47;;;29.10;95.20;;;;;;5059350;28;20541;-72
2021/06/21 07:41:45;;;;;;;8.80;5.00;;;29.40;96.80;;;;;;5059810;28;20044;-73
2021/06/21 07:44:11;;;;;;;9.50;5.68;;;29.70;97.00;;;;;;5059482;28;20005;-76
2021/06/21 07:46:37;;;;;;;15.13;6.75;;;30.00;96.40;;;;;;5058603;28;20412;-76
2021/06/21 07:49:03;;;;;;;12.98;6.57;;;29.90;96.70;;;;;;5060531;28;20021;-72
2021/06/21 07:51:30;;;;;;;9.10;6.32;;;30.00;96.60;;;;;;5060872;28;20028;-76
2021/06/21 07:53:57;;;;;;;9.10;5.68;;;30.30;95.90;;;;;;5062302;28;20040;-76
2021/06/21 07:56:23;;;;;;;11.35;6.32;;;30.40;95.30;;;;;;5060504;28;20021;-74
2021/06/21 07:58:50;;;;;;;9.90;5.20;;;30.50;95.70;;;;;;5059998;28;20005;-72
2021/06/21 08:01:16;;;;;;;9.65;5.50;;;30.70;95.10;;;;;;5060270;28;20065;-76
2021/06/21 08:03:44;;;;;;;11.40;5.55;;;30.80;96.10;;;;;;5059059;28;20021;-72
2021/06/21 08:06:11;;;;;;;12.82;7.50;;;31.10;97.10;;;;;;5057441;28;20017;-73
2021/06/21 08:08:40;;;;;;;11.93;6.65;;;31.20;94.20;;;;;;5056859;28;20352;-76
2021/06/21 08:11:07;;;;;;;20.33;12.20;;;31.20;92.40;;;;;;5056223;28;20021;-73
2021/06/21 08:13:33;;;;;;;9.02;5.10;;;31.40;93.10;;;;;;5060021;28;20116;-73
2021/06/21 08:15:59;;;;;;;8.43;5.00;;;31.50;91.30;;;;;;5059708;28;20142;-70
2021/06/21 08:18:25;;;;;;;9.88;4.72;;;31.40;91.90;;;;;;5056714;28;20454;-72
2021/06/21 08:20:51;;;;;;;6.45;4.28;;;31.60;92.10;;;;;;5055426;28;20021;-73
2021/06/21 08:23:18;;;;;;;7.78;3.90;;;31.40;87.10;;;;;;5055378;28;20047;-72
2021/06/21 08:25:44;;;;;;;8.30;4.10;;;31.50;86.90;;;;;;5059952;28;20533;-77
2021/06/21 08:28:11;;;;;;;5.57;4.07;;;31.40;89.30;;;;;;5058432;28;20036;-75
2021/06/21 08:30:38;;;;;;;6.38;4.55;;;31.60;89.40;;;;;;5056586;28;20033;-71
2021/06/21 08:33:04;;;;;;;6.60;3.90;;;31.50;88.60;;;;;;5059141;28;20025;-72
2021/06/21 08:35:31;;;;;;;5.65;4.25;;;31.60;90.00;;;;;;5059090;28;20376;-73
2021/06/21 08:37:57;;;;;;;6.90;4.25;;;31.80;89.00;;;;;;5061438;28;20080;-73
2021/06/21 08:40:25;;;;;;;5.95;3.88;;;31.60;87.80;;;;;;5062058;28;20021;-75
2021/06/21 08:42:51;;;;;;;8.85;4.32;;;31.90;86.10;;;;;;5060009;28;20071;-72
2021/06/21 08:45:18;;;;;;;4.70;4.20;;;32.10;85.60;;;;;;5061479;28;20155;-74
2021/06/21 08:47:47;;;;;;;8.45;4.40;;;32.10;85.20;;;;;;5060678;28;20097;-76
2021/06/21 08:50:14;;;;;;;5.95;4.25;;;32.20;86.10;;;;;;5058552;28;20008;-73
2021/06/21 08:52:43;;;;;;;5.82;4.07;;;32.30;85.40;;;;;;5056587;28;20060;-71
2021/06/21 08:55:11;;;;;;;8.70;3.80;;;32.30;83.00;;;;;;5055148;28;20078;-73
2021/06/21 08:57:38;;;;;;;5.30;3.88;;;;;;;;;;5056609;28;20044;-74
2021/06/21 09:00:07;;;;;;;5.25;3.90;;;32.60;80.90;;;;;;5058839;28;20029;-72
2021/06/21 09:02:33;;;;;;;6.90;4.22;;;32.70;81.00;;;;;;5059620;28;20029;-76
2021/06/21 09:05:00;;;;;;;5.80;4.50;;;32.90;81.00;;;;;;5059512;28;20021;-75
2021/06/21 09:07:28;;;;;;;4.72;3.65;;;32.90;81.90;;;;;;5059997;28;20478;-75
2021/06/21 09:09:57;;;;;;;6.65;3.90;;;32.80;77.60;;;;;;5061217;28;20025;-75
2021/06/21 09:12:24;;;;;;;5.95;3.85;;;33.00;76.80;;;;;;5059210;28;20017;-73
2021/06/21 09:14:51;;;;;;;7.22;4.22;;;33.00;79.40;;;;;;5057129;28;20067;-73
2021/06/21 09:17:20;;;;;;;6.15;3.85;;;33.40;77.80;;;;;;5059790;28;20052;-73
2021/06/21 09:19:49;;;;;;;4.95;3.30;;;33.10;74.30;;;;;;5059793;28;20479;-73
2021/06/21 09:22:37;;;;;;;4.35;3.38;;;33.20;71.90;;;;;;5060092;28;20041;-73
2021/06/21 09:25:15;;;;;;;7.85;3.50;;;33.20;73.20;;;;;;5060715;28;20083;-73
2021/06/21 09:27:43;;;;;;;7.63;3.47;;;33.30;74.80;;;;;;5059009;28;20087;-74
2021/06/21 09:30:13;;;;;;;4.35;3.70;;;33.50;73.00;;;;;;5058338;28;20033;-75
2021/06/21 09:32:48;;;;;;;6.50;4.00;;;33.30;74.10;;;;;;5058074;28;20021;-71
2021/06/21 09:35:26;;;;;;;6.30;3.80;;;33.20;72.60;;;;;;5060056;28;20029;-73
2021/06/21 09:37:53;;;;;;;7.55;3.67;;;33.00;72.60;;;;;;5060079;28;20025;-74
2021/06/21 09:40:34;;;;;;;6.88;4.35;;;32.90;71.40;;;;;;5058514;28;20063;-74
2021/06/21 09:43:19;;;;;;;5.60;3.50;;;32.70;73.90;;;;;;5058490;28;20049;-72
2021/06/21 09:46:09;;;;;;;6.88;3.40;;;32.50;73.30;;;;;;5059608;28;20048;-71
2021/06/21 09:48:36;;;;;;;7.80;3.72;;;32.40;73.60;;;;;;5059711;28;20029;-74
2021/06/21 09:51:24;;;;;;;4.68;3.75;;;32.40;74.90;;;;;;5059585;28;20025;-74
2021/06/21 09:54:00;;;;;;;6.00;3.72;;;32.50;75.70;;;;;;5059551;28;20037;-73
2021/06/21 09:56:43;;;;;;;5.57;3.78;;;32.50;72.50;;;;;;5061128;28;20108;-73
2021/06/21 09:59:33;;;;;;;6.88;3.78;;;32.20;74.70;;;;;;5061951;28;20040;-72
2021/06/21 10:02:12;;;;;;;5.35;3.50;;;32.00;73.60;;;;;;5062449;28;20446;-71
2021/06/21 10:04:40;;;;;;;7.00;3.75;;;32.10;74.40;;;;;;5062446;28;20036;-73
2021/06/21 10:07:27;;;;;;;7.13;3.80;;;32.00;74.30;;;;;;5058171;28;20037;-73
2021/06/21 10:09:55;;;;;;;7.03;3.80;;;32.20;74.00;;;;;;5058223;28;20082;-72
2021/06/21 10:12:21;;;;;;;8.02;3.80;;;32.30;74.00;;;;;;5057712;28;20025;-73
2021/06/21 10:14:47;;;;;;;5.22;3.63;;;32.40;73.40;;;;;;5057223;28;20028;-74
2021/06/21 10:17:13;;;;;;;7.03;3.72;;;32.50;72.80;;;;;;5061509;28;20008;-73
2021/06/21 10:19:39;;;;;;;4.50;3.40;;;32.40;72.50;;;;;;5060606;28;20025;-73
2021/06/21 10:22:07;;;;;;;6.57;3.60;;;32.40;74.30;;;;;;5063262;28;20013;-72
2021/06/21 10:24:33;;;;;;;5.18;3.63;;;32.50;75.00;;;;;;5064287;28;20025;-72
2021/06/21 10:27:01;;;;;;;6.95;3.70;;;32.60;77.10;;;;;;5063544;28;20021;-71
2021/06/21 10:29:28;;;;;;;4.88;3.42;;;32.80;74.50;;;;;;5063940;28;20025;-73
2021/06/21 10:31:55;;;;;;;4.53;3.60;;;32.90;72.50;;;;;;5063230;28;20017;-72
2021/06/21 10:34:21;;;;;;;6.28;3.67;;;33.10;73.00;;;;;;5062231;28;20017;-72
2021/06/21 10:36:51;;;;;;;5.47;3.58;;;33.00;70.40;;;;;;5063042;28;20017;-75
2021/06/21 10:39:25;;;;;;;5.88;3.50;;;33.00;72.30;;;;;;5062230;28;20360;-73
2021/06/21 10:42:06;;;;;;;7.55;3.78;;;32.80;68.40;;;;;;5061819;28;20079;-72
2021/06/21 10:44:39;;;;;;;7.72;3.92;;;32.70;71.40;;;;;;5062308;28;20024;-76
2021/06/21 10:47:39;;;;;;;7.38;3.75;;;32.50;69.20;;;;;;5062646;28;20009;-75
2021/06/21 10:50:07;;;;;;;4.80;3.40;;;32.60;70.80;;;;;;5061476;28;20033;-73
2021/06/21 10:52:44;;;;;;;6.82;3.60;;;32.80;70.00;;;;;;5059550;28;20021;-74
2021/06/21 10:55:23;;;;;;;9.70;4.20;;;32.90;69.90;;;;;;5061875;28;20091;-75
2021/06/21 10:57:54;;;;;;;5.22;3.70;;;33.10;71.00;;;;;;5062471;28;20057;-72
2021/06/21 11:00:42;;;;;;;5.88;3.88;;;33.30;69.00;;;;;;5061658;28;20060;-71
2021/06/21 11:03:27;;;;;;;6.28;3.90;;;33.60;70.80;;;;;;5062792;28;20124;-72
2021/06/21 11:05:57;;;;;;;5.25;3.35;;;33.80;71.80;;;;;;5062298;28;20422;-72
2021/06/21 11:08:40;;;;;;;5.70;3.90;;;33.80;69.70;;;;;;5062068;28;20029;-73
2021/06/21 11:11:34;;;;;;;5.35;4.05;;;34.10;68.90;;;;;;5063183;28;20021;-74
2021/06/21 11:14:14;;;;;;;;;;;34.00;71.00;;;;;;5060935;28;20036;-71
2021/06/21 11:16:45;;;;;;;6.78;3.85;;;33.80;68.00;;;;;;5060313;28;19999;-72
2021/06/21 11:19:16;;;;;;;6.28;4.22;;;34.00;69.80;;;;;;5063886;28;20466;-74
2021/06/21 11:21:55;;;;;;;7.18;4.07;;;34.10;68.70;;;;;;5061513;28;20031;-74
2021/06/21 11:24:37;;;;;;;5.53;3.67;;;34.20;68.80;;;;;;5064931;28;20033;-75
2021/06/21 11:27:09;;;;;;;4.68;3.90;;;34.30;69.80;;;;;;5064110;28;20052;-73
2021/06/21 11:29:41;;;;;;;5.93;4.45;;;34.30;68.40;;;;;;5068243;28;20043;-74
2021/06/21 11:32:09;;;;;;;5.63;3.97;;;34.30;68.30;;;;;;5066100;28;20019;-75
2021/06/21 11:34:55;;;;;;;7.60;4.53;;;34.50;70.70;;;;;;5063315;28;20056;-75
2021/06/21 11:37:31;;;;;;;7.75;3.85;;;34.60;69.60;;;;;;5062434;28;20537;-74
2021/06/21 11:40:18;;;;;;;7.05;4.47;;;34.50;68.00;;;;;;5064517;28;20018;-73
2021/06/21 11:43:02;;;;;;;5.90;3.80;;;34.40;67.90;;;;;;5062067;28;20037;-73
2021/06/21 11:45:46;;;;;;;23.02;8.38;;;34.10;68.10;;;;;;5064007;28;20020;-72
2021/06/21 11:48:36;;;;;;;6.30;4.20;;;34.30;71.40;;;;;;5061734;28;20020;-73
2021/06/21 11:51:15;;;;;;;7.57;5.05;;;34.40;72.00;;;;;;5058575;28;20036;-76
2021/06/21 11:53:43;;;;;;;5.47;4.05;;;34.70;74.30;;;;;;5064733;28;20005;-75
2021/06/21 11:56:13;;;;;;;6.50;4.20;;;34.90;69.90;;;;;;5062592;28;20033;-73
2021/06/21 11:58:39;;;;;;;9.55;4.35;;;35.00;69.60;;;;;;5062148;28;20028;-74
2021/06/21 12:01:16;;;;;;;9.93;4.30;;;35.20;67.50;;;;;;5060402;28;20075;-74
2021/06/21 12:03:44;;;;;;;8.43;4.13;;;35.40;70.60;;;;;;5062667;28;20061;-73
2021/06/21 12:06:14;;;;;;;9.57;4.45;;;35.20;67.80;;;;;;5063216;28;20060;-73
2021/06/21 12:08:41;;;;;;;8.82;4.65;;;35.00;65.90;;;;;;5063051;28;20375;-73
2021/06/21 12:11:11;;;;;;;8.55;4.68;;;35.00;66.80;;;;;;5063355;28;20024;-76
2021/06/21 12:13:36;;;;;;;6.93;4.50;;;35.20;65.90;;;;;;5063155;28;20028;-74
2021/06/21 12:16:08;;;;;;;7.45;4.78;;;35.60;72.00;;;;;;5063322;28;20025;-74
2021/06/21 12:18:34;;;;;;;8.52;4.78;;;35.80;70.00;;;;;;5063134;28;20021;-76
2021/06/21 12:21:00;;;;;;;8.27;4.90;;;35.90;66.90;;;;;;5060399;28;20371;-76
2021/06/21 12:23:29;;;;;;;8.68;4.53;;;36.00;68.10;;;;;;5060832;28;20009;-74
2021/06/21 12:25:55;;;;;;;8.75;4.50;;;36.20;65.40;;;;;;5063062;28;20052;-78
2021/06/21 12:28:26;;;;;;;10.07;5.07;;;36.20;67.90;;;;;;5063543;28;20032;-77
2021/06/21 12:30:59;;;;;;;10.93;5.47;;;36.00;66.50;;;;;;5062247;28;20025;-77
2021/06/21 12:33:40;;;;;;;15.10;5.93;;;35.90;65.30;;;;;;5059831;28;20120;-76
2021/06/21 12:36:17;;;;;;;9.23;5.78;;;35.80;66.60;;;;;;5062274;28;20029;-79
2021/06/21 12:38:44;;;;;;;13.02;6.05;;;35.50;65.90;;;;;;5061646;28;20063;-76
2021/06/21 12:41:30;;;;;;;11.10;6.55;;;35.60;68.20;;;;;;5062698;28;20044;-74
2021/06/21 12:44:09;;;;;;;6.93;5.60;;;35.60;66.60;;;;;;5054273;28;20114;-76
2021/06/21 12:46:38;;;;;;;9.93;5.45;;;35.80;69.30;;;;;;5061839;28;20029;-77
2021/06/21 12:49:09;;;;;;;11.25;6.70;;;35.90;68.80;;;;;;5063374;28;20025;-75
2021/06/21 12:51:36;;;;;;;15.30;7.60;;;36.00;66.00;;;;;;5060695;28;20467;-76
2021/06/21 12:54:03;;;;;;;12.57;7.28;;;35.70;68.00;;;;;;5061116;28;20021;-76
2021/06/21 12:56:37;;;;;;;14.75;7.50;;;35.60;68.20;;;;;;5056885;28;20032;-73